createdAt,value
2019-01-20T00:01:33.706Z,13.98
2019-01-20T00:04:40.763Z,16.27
2019-01-20T00:07:47.905Z,16.32
2019-01-20T00:10:55.006Z,16.82
2019-01-20T00:14:04.393Z,16.77
2019-01-20T00:17:11.465Z,23.67
2019-01-20T00:20:18.811Z,21.05
2019-01-20T00:23:26.203Z,13.15
2019-01-20T00:26:33.412Z,12.75
2019-01-20T00:29:40.495Z,11.55
2019-01-20T00:32:48.187Z,22.73
2019-01-20T00:35:55.819Z,15.28
2019-01-20T00:39:03.279Z,16.82
2019-01-20T00:42:10.748Z,22.87
2019-01-20T00:45:18.280Z,10.53
2019-01-20T00:48:25.556Z,16.65
2019-01-20T00:51:33.130Z,11.73
2019-01-20T00:54:40.180Z,16.05
2019-01-20T00:57:47.409Z,24.90
2019-01-20T01:00:54.784Z,13.60
2019-01-20T01:04:02.005Z,15.23
2019-01-20T01:07:09.210Z,12.98
2019-01-20T01:10:16.601Z,13.35
2019-01-20T01:13:23.900Z,17.40
2019-01-20T01:16:31.219Z,16.07
2019-01-20T01:19:38.482Z,15.83
2019-01-20T01:22:47.071Z,17.00
2019-01-20T01:25:54.203Z,10.98
2019-01-20T01:29:01.526Z,19.90
2019-01-20T01:32:08.750Z,9.53
2019-01-20T01:35:18.290Z,17.15
2019-01-20T01:38:25.333Z,12.90
2019-01-20T01:41:38.877Z,12.10
2019-01-20T01:44:40.950Z,27.13
2019-01-20T01:47:50.587Z,17.02
2019-01-20T01:50:59.471Z,13.50
2019-01-20T01:54:06.895Z,12.98
2019-01-20T01:57:13.892Z,14.33
2019-01-20T02:00:24.500Z,9.53
2019-01-20T02:03:31.434Z,8.33
2019-01-20T02:06:38.981Z,14.60
2019-01-20T02:09:46.481Z,12.35
2019-01-20T02:12:55.216Z,9.90
2019-01-20T02:16:02.342Z,17.17
2019-01-20T02:19:09.494Z,21.15
2019-01-20T02:22:17.119Z,12.75
2019-01-20T02:25:26.251Z,9.13
2019-01-20T02:28:33.466Z,10.38
2019-01-20T02:31:40.661Z,18.27
2019-01-20T02:34:47.977Z,13.30
2019-01-20T02:37:56.306Z,7.15
2019-01-20T02:41:03.550Z,11.00
2019-01-20T02:44:10.762Z,11.60
2019-01-20T02:47:17.784Z,8.45
2019-01-20T02:50:24.879Z,11.88
2019-01-20T02:53:31.861Z,10.50
2019-01-20T02:56:39.041Z,11.22
2019-01-20T02:59:46.236Z,15.80
2019-01-20T03:02:53.424Z,8.80
2019-01-20T03:06:02.919Z,9.90
2019-01-20T03:09:10.646Z,11.80
2019-01-20T03:12:17.859Z,18.70
2019-01-20T03:15:24.916Z,10.48
2019-01-20T03:18:33.561Z,15.60
2019-01-20T03:21:40.510Z,15.00
2019-01-20T03:24:47.591Z,13.80
2019-01-20T03:27:54.627Z,7.17
2019-01-20T03:31:01.690Z,16.00
2019-01-20T03:34:08.988Z,12.95
2019-01-20T03:37:16.026Z,13.70
2019-01-20T03:40:23.707Z,11.45
2019-01-20T03:43:31.007Z,15.95
2019-01-20T03:46:40.516Z,11.40
2019-01-20T03:49:47.915Z,11.18
2019-01-20T03:52:55.226Z,9.45
2019-01-20T03:56:02.594Z,9.25
2019-01-20T03:59:09.713Z,7.45
2019-01-20T04:02:18.400Z,6.10
2019-01-20T04:05:25.464Z,5.10
2019-01-20T04:08:32.745Z,12.13
2019-01-20T04:11:42.022Z,6.65
2019-01-20T04:14:49.087Z,4.15
2019-01-20T04:17:56.308Z,6.75
2019-01-20T04:21:03.528Z,9.43
2019-01-20T04:24:10.581Z,9.90
2019-01-20T04:27:17.596Z,4.25
2019-01-20T04:30:24.711Z,10.32
2019-01-20T04:33:32.023Z,10.85
2019-01-20T04:36:39.076Z,5.55
2019-01-20T04:39:46.113Z,5.50
2019-01-20T04:42:53.178Z,9.40
2019-01-20T04:46:00.230Z,9.58
2019-01-20T04:49:07.343Z,9.20
2019-01-20T04:52:14.363Z,7.35
2019-01-20T04:55:21.459Z,13.15
2019-01-20T04:58:28.856Z,11.25
2019-01-20T05:01:35.877Z,7.85
2019-01-20T05:04:43.304Z,7.50
2019-01-20T05:07:50.479Z,8.38
2019-01-20T05:10:57.614Z,8.23
2019-01-20T05:14:06.178Z,14.00
2019-01-20T05:17:13.729Z,11.45
2019-01-20T05:20:22.962Z,9.00
2019-01-20T05:23:30.358Z,5.92
2019-01-20T05:26:37.427Z,10.30
2019-01-20T05:29:44.910Z,11.97
2019-01-20T05:32:52.166Z,5.10
2019-01-20T05:36:00.283Z,7.35
2019-01-20T05:39:08.583Z,11.45
2019-01-20T05:42:15.621Z,3.17
2019-01-20T05:45:25.587Z,4.22
2019-01-20T05:48:32.896Z,5.08
2019-01-20T05:51:39.845Z,10.93
2019-01-20T05:54:46.843Z,10.53
2019-01-20T05:57:53.886Z,6.05
2019-01-20T06:01:02.141Z,7.92
2019-01-20T06:04:09.216Z,9.03
2019-01-20T06:07:16.388Z,12.03
2019-01-20T06:10:24.136Z,4.00
2019-01-20T06:13:31.437Z,5.62
2019-01-20T06:16:38.545Z,6.70
2019-01-20T06:19:45.688Z,11.60
2019-01-20T06:22:52.769Z,9.90
2019-01-20T06:25:59.739Z,8.93
2019-01-20T06:29:06.813Z,10.98
2019-01-20T06:32:13.816Z,14.65
2019-01-20T06:35:21.194Z,9.23
2019-01-20T06:38:28.858Z,5.17
2019-01-20T06:41:38.576Z,10.20
2019-01-20T06:44:45.568Z,13.90
2019-01-20T06:47:52.871Z,11.35
2019-01-20T06:50:59.998Z,6.97
2019-01-20T06:54:07.561Z,10.20
2019-01-20T06:57:14.629Z,8.93
2019-01-20T07:00:23.228Z,9.75
2019-01-20T07:03:30.304Z,7.47
2019-01-20T07:06:38.730Z,3.25
2019-01-20T07:09:45.738Z,7.85
2019-01-20T07:12:52.842Z,9.45
2019-01-20T07:16:00.053Z,7.53
2019-01-20T07:19:07.258Z,11.70
2019-01-20T07:22:14.209Z,11.30
2019-01-20T07:25:21.416Z,8.75
2019-01-20T07:28:28.515Z,6.35
2019-01-20T07:31:35.488Z,5.25
2019-01-20T07:34:42.879Z,6.58
2019-01-20T07:37:50.230Z,12.05
2019-01-20T07:40:57.443Z,10.40
2019-01-20T07:44:04.784Z,4.42
2019-01-20T07:47:12.008Z,9.30
2019-01-20T07:50:24.085Z,5.95
2019-01-20T07:53:31.311Z,12.50
2019-01-20T07:56:38.406Z,10.55
2019-01-20T07:59:47.252Z,12.90
2019-01-20T08:02:54.423Z,12.73
2019-01-20T08:06:01.520Z,8.75
2019-01-20T08:09:09.176Z,6.12
2019-01-20T08:12:23.352Z,10.00
2019-01-20T08:15:25.797Z,7.22
2019-01-20T08:18:32.827Z,20.65
2019-01-20T08:21:40.604Z,8.33
2019-01-20T08:24:48.106Z,8.45
2019-01-20T08:27:55.278Z,7.30
2019-01-20T08:31:02.335Z,10.18
2019-01-20T08:34:09.463Z,15.60
2019-01-20T08:37:16.513Z,9.65
2019-01-20T08:40:28.486Z,19.57
2019-01-20T08:43:35.892Z,8.58
2019-01-20T08:46:52.633Z,15.03
2019-01-20T08:49:59.862Z,13.20
2019-01-20T08:53:07.056Z,13.50
2019-01-20T08:56:14.334Z,8.90
2019-01-20T08:59:21.324Z,11.18
2019-01-20T09:02:29.322Z,12.65
2019-01-20T09:05:36.642Z,12.30
2019-01-20T09:08:44.014Z,14.25
2019-01-20T09:11:51.047Z,16.23
2019-01-20T09:14:58.666Z,14.28
2019-01-20T09:18:06.778Z,10.98
2019-01-20T09:21:13.829Z,15.08
2019-01-20T09:24:21.062Z,15.98
2019-01-20T09:27:28.097Z,14.50
2019-01-20T09:30:35.254Z,15.70
2019-01-20T09:33:42.182Z,13.38
2019-01-20T09:36:49.336Z,12.60
2019-01-20T09:39:56.418Z,16.15
2019-01-20T09:43:04.667Z,17.87
2019-01-20T09:46:11.931Z,14.63
2019-01-20T09:49:19.026Z,14.03
2019-01-20T09:52:26.144Z,10.38
2019-01-20T09:55:33.384Z,25.85
2019-01-20T09:58:40.626Z,16.93
2019-01-20T10:01:47.746Z,13.90
2019-01-20T10:04:55.067Z,14.38
2019-01-20T10:08:02.234Z,21.25
2019-01-20T10:11:11.134Z,16.67
2019-01-20T10:14:18.462Z,46.90
2019-01-20T10:17:25.593Z,34.43
2019-01-20T10:20:33.101Z,23.05
2019-01-20T10:23:40.617Z,31.27
2019-01-20T10:26:47.771Z,19.02
2019-01-20T10:29:55.111Z,14.33
2019-01-20T10:33:03.479Z,37.78
2019-01-20T10:36:12.502Z,32.38
2019-01-20T10:39:19.891Z,18.07
2019-01-20T10:42:27.503Z,15.75
2019-01-20T10:45:34.472Z,20.52
2019-01-20T10:48:41.830Z,16.45
2019-01-20T10:51:48.855Z,11.88
2019-01-20T10:54:56.048Z,27.48
2019-01-20T10:58:02.970Z,13.98
2019-01-20T11:01:10.339Z,18.15
2019-01-20T11:04:17.789Z,20.95
2019-01-20T11:07:24.734Z,16.60
2019-01-20T11:10:31.846Z,19.12
2019-01-20T11:13:38.923Z,18.70
2019-01-20T11:16:45.972Z,16.82
2019-01-20T11:19:52.912Z,14.90
2019-01-20T11:23:00.087Z,17.83
2019-01-20T11:26:07.497Z,15.77
2019-01-20T11:29:14.513Z,17.67
2019-01-20T11:32:22.945Z,15.87
2019-01-20T11:35:29.943Z,19.97
2019-01-20T11:38:36.929Z,17.60
2019-01-20T11:41:43.903Z,19.37
2019-01-20T11:44:50.789Z,18.07
2019-01-20T11:47:57.734Z,21.60
2019-01-20T11:51:04.584Z,15.90
2019-01-20T11:54:11.817Z,19.07
2019-01-20T11:57:18.699Z,18.50
2019-01-20T12:00:28.251Z,18.50
2019-01-20T12:03:35.064Z,19.73
2019-01-20T12:06:41.899Z,20.23
2019-01-20T12:09:48.868Z,15.45
2019-01-20T12:13:23.640Z,26.87
2019-01-20T12:16:31.925Z,16.05
2019-01-20T12:19:38.859Z,15.28
2019-01-20T12:22:45.896Z,10.50
2019-01-20T12:25:52.775Z,16.40
2019-01-20T12:29:00.659Z,11.22
2019-01-20T12:32:07.556Z,13.55
2019-01-20T12:35:14.452Z,17.25
2019-01-20T12:38:21.378Z,29.65
2019-01-20T12:41:28.200Z,42.98
2019-01-20T12:44:36.506Z,19.87
2019-01-20T12:47:43.562Z,11.97
2019-01-20T12:50:50.428Z,28.73
2019-01-20T12:53:57.373Z,33.63
2019-01-20T12:57:04.215Z,10.90
2019-01-20T13:00:13.423Z,14.07
2019-01-20T13:03:20.376Z,12.28
2019-01-20T13:06:27.226Z,11.12
2019-01-20T13:09:34.143Z,14.33
2019-01-20T13:12:40.961Z,10.18
2019-01-20T13:15:48.069Z,17.15
2019-01-20T13:18:54.989Z,10.05
2019-01-20T13:22:01.946Z,11.85
2019-01-20T13:25:11.040Z,15.40
2019-01-20T13:28:17.939Z,9.28
2019-01-20T13:31:24.805Z,18.65
2019-01-20T13:34:31.650Z,5.17
2019-01-20T13:37:40.681Z,13.13
2019-01-20T13:41:24.302Z,14.30
2019-01-20T13:44:31.214Z,15.75
2019-01-20T13:47:38.218Z,21.95
2019-01-20T13:50:46.180Z,12.68
2019-01-20T13:53:53.366Z,12.98
2019-01-20T13:57:00.710Z,15.93
2019-01-20T14:00:12.439Z,15.18
2019-01-20T14:03:19.777Z,15.20
2019-01-20T14:06:26.818Z,11.78
2019-01-20T14:09:33.852Z,19.20
2019-01-20T14:12:40.963Z,14.58
2019-01-20T14:15:48.026Z,13.22
2019-01-20T14:18:55.087Z,15.93
2019-01-20T14:22:02.115Z,11.35
2019-01-20T14:25:10.608Z,13.20
2019-01-20T14:28:17.749Z,20.85
2019-01-20T14:31:24.666Z,17.87
2019-01-20T14:34:32.088Z,20.05
2019-01-20T14:37:39.138Z,16.87
2019-01-20T14:40:46.566Z,22.70
2019-01-20T14:43:54.718Z,21.12
2019-01-20T14:47:01.692Z,11.83
2019-01-20T14:50:10.223Z,13.18
2019-01-20T14:53:17.805Z,21.45
2019-01-20T14:56:26.554Z,20.00
2019-01-20T14:59:33.949Z,10.05
2019-01-20T15:02:41.241Z,18.00
2019-01-20T15:05:48.230Z,19.07
2019-01-20T15:08:55.293Z,18.57
2019-01-20T15:12:02.224Z,20.25
2019-01-20T15:15:10.795Z,16.42
2019-01-20T15:18:17.797Z,21.68
2019-01-20T15:21:24.731Z,29.40
2019-01-20T15:24:31.660Z,18.90
2019-01-20T15:27:38.822Z,23.00
2019-01-20T15:30:45.729Z,16.40
2019-01-20T15:33:53.271Z,14.55
2019-01-20T15:37:00.215Z,19.57
2019-01-20T15:40:08.353Z,26.05
2019-01-20T15:43:15.336Z,23.95
2019-01-20T15:46:22.300Z,14.23
2019-01-20T15:49:29.459Z,23.87
2019-01-20T15:52:36.388Z,18.65
2019-01-20T15:55:43.703Z,21.73
2019-01-20T15:58:50.667Z,22.10
2019-01-20T16:01:57.652Z,27.05
2019-01-20T16:05:06.525Z,19.70
2019-01-20T16:08:13.489Z,30.30
2019-01-20T16:11:20.435Z,27.05
2019-01-20T16:14:27.377Z,27.73
2019-01-20T16:17:34.478Z,29.87
2019-01-20T16:20:41.502Z,21.82
2019-01-20T16:23:48.808Z,32.23
2019-01-20T16:26:55.820Z,40.10
2019-01-20T16:30:03.156Z,58.17
2019-01-20T16:33:11.963Z,28.67
2019-01-20T16:36:18.906Z,25.77
2019-01-20T16:39:25.884Z,39.50
2019-01-20T16:42:33.227Z,29.63
2019-01-20T16:45:42.931Z,33.08
2019-01-20T16:48:49.883Z,31.20
2019-01-20T16:51:56.772Z,31.48
2019-01-20T16:55:04.228Z,27.13
2019-01-20T16:58:11.144Z,31.70
2019-01-20T17:01:18.135Z,37.53
2019-01-20T17:04:25.078Z,23.40
2019-01-20T17:07:32.060Z,24.40
2019-01-20T17:10:40.887Z,24.82
2019-01-20T17:13:48.351Z,24.75
2019-01-20T17:16:55.363Z,26.73
2019-01-20T17:20:02.506Z,40.05
2019-01-20T17:23:10.143Z,36.68
2019-01-20T17:26:18.454Z,32.08
2019-01-20T17:29:25.394Z,27.77
2019-01-20T17:32:32.318Z,31.30
2019-01-20T17:35:39.575Z,26.80
2019-01-20T17:38:46.734Z,22.25
2019-01-20T17:41:54.438Z,23.98
2019-01-20T17:45:01.698Z,25.35
2019-01-20T17:48:08.718Z,19.98
2019-01-20T17:51:15.967Z,26.02
2019-01-20T17:54:26.083Z,33.55
2019-01-20T17:57:34.960Z,24.77
2019-01-20T18:00:45.176Z,26.97
2019-01-20T18:03:53.296Z,28.62
2019-01-20T18:07:00.352Z,27.55
2019-01-20T18:10:08.983Z,25.85
2019-01-20T18:13:16.348Z,32.65
2019-01-20T18:16:23.507Z,33.98
2019-01-20T18:19:30.394Z,35.78
2019-01-20T18:22:38.146Z,24.75
2019-01-20T18:25:45.245Z,23.40
2019-01-20T18:28:52.652Z,25.52
2019-01-20T18:32:02.649Z,35.48
2019-01-20T18:35:10.130Z,23.98
2019-01-20T18:38:17.872Z,25.92
2019-01-20T18:41:24.832Z,32.28
2019-01-20T18:44:32.087Z,39.08
2019-01-20T18:47:39.157Z,29.02
2019-01-20T18:50:46.171Z,41.88
2019-01-20T18:53:53.372Z,41.40
2019-01-20T18:57:00.388Z,40.15
2019-01-20T19:00:30.045Z,50.50
2019-01-20T19:03:36.947Z,40.67
2019-01-20T19:06:43.994Z,37.60
2019-01-20T19:09:51.153Z,31.30
2019-01-20T19:12:58.327Z,36.03
2019-01-20T19:16:09.008Z,33.78
2019-01-20T19:19:15.208Z,43.02
2019-01-20T19:22:22.317Z,37.70
2019-01-20T19:25:29.303Z,35.50
2019-01-20T19:28:38.612Z,36.80
2019-01-20T19:31:45.509Z,38.10
2019-01-20T19:34:53.259Z,41.63
2019-01-20T19:38:00.385Z,27.25
2019-01-20T19:41:07.508Z,32.63
2019-01-20T19:44:15.625Z,31.02
2019-01-20T19:47:22.796Z,35.30
2019-01-20T19:50:29.837Z,35.55
2019-01-20T19:53:37.230Z,26.37
2019-01-20T19:56:45.320Z,35.40
2019-01-20T19:59:52.393Z,30.60
2019-01-20T20:02:59.678Z,37.65
2019-01-20T20:06:06.796Z,35.78
2019-01-20T20:09:14.657Z,35.90
2019-01-20T20:12:21.747Z,39.10
2019-01-20T20:15:29.153Z,33.33
2019-01-20T20:18:36.203Z,29.20
2019-01-20T20:21:43.380Z,45.10
2019-01-20T20:24:50.629Z,35.20
2019-01-20T20:27:57.683Z,32.70
2019-01-20T20:31:04.869Z,32.08
2019-01-20T20:34:12.006Z,34.08
2019-01-20T20:37:19.403Z,33.08
2019-01-20T20:40:26.469Z,30.72
2019-01-20T20:43:33.425Z,38.78
2019-01-20T20:46:40.368Z,35.10
2019-01-20T20:49:47.471Z,37.30
2019-01-20T20:52:54.823Z,41.15
2019-01-20T20:56:01.781Z,38.25
2019-01-20T20:59:09.309Z,41.95
2019-01-20T21:02:16.541Z,39.33
2019-01-20T21:05:25.646Z,34.83
2019-01-20T21:08:32.652Z,30.90
2019-01-20T21:11:39.669Z,28.85
2019-01-20T21:14:46.703Z,30.72
2019-01-20T21:17:54.085Z,26.02
2019-01-20T21:21:01.249Z,30.27
2019-01-20T21:24:08.378Z,35.08
2019-01-20T21:27:15.467Z,32.23
2019-01-20T21:30:24.816Z,24.67
2019-01-20T21:33:31.972Z,30.70
2019-01-20T21:36:39.093Z,29.00
2019-01-20T21:39:46.127Z,34.78
2019-01-20T21:42:53.223Z,34.78
2019-01-20T21:46:02.386Z,26.00
2019-01-20T21:49:09.620Z,27.30
2019-01-20T21:52:17.064Z,25.43
2019-01-20T21:55:24.656Z,24.30
2019-01-20T21:58:50.410Z,22.48
2019-01-20T22:02:09.534Z,31.62
2019-01-20T22:05:27.765Z,30.92
2019-01-20T22:08:46.746Z,36.40
2019-01-20T22:12:05.060Z,26.50
2019-01-20T22:15:24.076Z,30.75
2019-01-20T22:18:42.213Z,34.65
2019-01-20T22:22:01.173Z,43.08
2019-01-20T22:25:19.917Z,29.05
2019-01-20T22:28:38.834Z,34.90
2019-01-20T22:31:57.288Z,28.70
2019-01-20T22:35:16.279Z,26.95
2019-01-20T22:38:33.504Z,31.02
2019-01-20T22:41:59.618Z,29.05
2019-01-20T22:45:26.741Z,35.50
2019-01-20T22:48:52.893Z,40.38
2019-01-20T22:52:19.057Z,31.95
2019-01-20T22:55:45.051Z,30.65
2019-01-20T22:59:28.621Z,28.40
2019-01-20T23:02:54.731Z,30.65
2019-01-20T23:06:20.796Z,37.50
2019-01-20T23:09:46.824Z,29.75
2019-01-20T23:16:55.592Z,22.02
2019-01-20T23:20:14.826Z,29.40
2019-01-20T23:23:33.891Z,28.50
2019-01-20T23:26:52.777Z,28.27
2019-01-20T23:30:11.124Z,25.80
2019-01-20T23:33:30.036Z,28.05
2019-01-20T23:36:48.282Z,28.80
2019-01-20T23:40:07.237Z,28.12
2019-01-20T23:43:26.299Z,33.25
2019-01-20T23:46:45.283Z,23.75
2019-01-20T23:50:04.247Z,31.97
2019-01-20T23:53:22.613Z,23.85
2019-01-20T23:56:41.705Z,31.70
